createdAt,value
2019-06-01T00:00:58.131Z,101083.47
2019-06-01T00:02:32.498Z,101080.05
2019-06-01T00:04:07.467Z,101086.23
2019-06-01T00:05:42.571Z,101084.11
2019-06-01T00:07:17.962Z,101085.38
2019-06-01T00:08:52.343Z,101082.92
2019-06-01T00:10:27.273Z,101080.70
2019-06-01T00:12:01.642Z,101079.52
2019-06-01T00:13:36.990Z,101078.64
2019-06-01T00:15:11.834Z,101079.41
2019-06-01T00:16:48.033Z,101076.28
2019-06-01T00:18:22.521Z,101082.05
2019-06-01T00:19:57.842Z,101081.02
2019-06-01T00:21:32.540Z,101082.66
2019-06-01T00:23:07.502Z,101083.98
2019-06-01T00:24:41.870Z,101083.03
2019-06-01T00:26:16.905Z,101083.28
2019-06-01T00:27:51.322Z,101082.91
2019-06-01T00:29:26.306Z,101078.34
2019-06-01T00:31:00.917Z,101083.52
2019-06-01T00:32:36.239Z,101084.70
2019-06-01T00:34:11.498Z,101078.15
2019-06-01T00:35:47.510Z,101075.36
2019-06-01T00:37:22.610Z,101077.81
2019-06-01T00:38:58.447Z,101080.99
2019-06-01T00:40:33.421Z,101079.27
2019-06-01T00:42:08.793Z,101081.77
2019-06-01T00:43:44.237Z,101084.37
2019-06-01T00:45:19.820Z,101076.17
2019-06-01T00:46:55.030Z,101083.53
2019-06-01T00:48:30.253Z,101082.60
2019-06-01T00:50:06.428Z,101080.82
2019-06-01T00:51:42.838Z,101081.24
2019-06-01T00:53:18.269Z,101074.56
2019-06-01T00:54:53.601Z,101083.38
2019-06-01T00:56:28.482Z,101076.98
2019-06-01T00:58:03.442Z,101088.09
2019-06-01T00:59:38.133Z,101082.44
2019-06-01T01:01:13.145Z,101088.47
2019-06-01T01:02:48.039Z,101088.31
2019-06-01T01:04:23.568Z,101088.59
2019-06-01T01:05:58.239Z,101088.52
2019-06-01T01:07:33.185Z,101084.16
2019-06-01T01:09:08.991Z,101078.82
2019-06-01T01:10:44.792Z,101081.30
2019-06-01T01:12:19.402Z,101085.06
2019-06-01T01:13:55.386Z,101080.16
2019-06-01T01:15:30.003Z,101081.33
2019-06-01T01:17:05.142Z,101089.83
2019-06-01T01:18:39.750Z,101087.72
2019-06-01T01:20:14.703Z,101091.80
2019-06-01T01:21:50.628Z,101091.66
2019-06-01T01:23:25.561Z,101088.20
2019-06-01T01:25:00.172Z,101086.94
2019-06-01T01:26:35.367Z,101080.89
2019-06-01T01:28:09.750Z,101088.50
2019-06-01T01:29:44.712Z,101086.19
2019-06-01T01:31:19.186Z,101081.08
2019-06-01T01:32:55.666Z,101081.23
2019-06-01T01:34:30.314Z,101076.09
2019-06-01T01:36:05.526Z,101076.05
2019-06-01T01:37:40.137Z,101077.59
2019-06-01T01:39:15.087Z,101083.89
2019-06-01T01:40:50.082Z,101073.73
2019-06-01T01:42:25.402Z,101077.40
2019-06-01T01:44:00.151Z,101073.81
2019-06-01T01:45:35.425Z,101072.39
2019-06-01T01:47:09.947Z,101072.70
2019-06-01T01:48:45.146Z,101072.53
2019-06-01T01:50:20.962Z,101076.41
2019-06-01T01:51:55.958Z,101075.75
2019-06-01T01:53:30.739Z,101078.77
2019-06-01T01:55:06.610Z,101070.70
2019-06-01T01:56:41.386Z,101068.20
2019-06-01T01:58:16.582Z,101071.75
2019-06-01T01:59:51.297Z,101073.70
2019-06-01T02:01:26.562Z,101074.56
2019-06-01T02:03:02.179Z,101067.84
2019-06-01T02:04:37.470Z,101071.45
2019-06-01T02:06:12.331Z,101067.55
2019-06-01T02:07:47.301Z,101069.72
2019-06-01T02:09:21.847Z,101064.72
2019-06-01T02:10:57.495Z,101066.86
2019-06-01T02:12:32.155Z,101064.44
2019-06-01T02:14:07.204Z,101066.20
2019-06-01T02:15:42.834Z,101062.29
2019-06-01T02:17:17.865Z,101063.64
2019-06-01T02:18:53.949Z,101059.75
2019-06-01T02:20:29.362Z,101064.34
2019-06-01T02:22:03.850Z,101062.36
2019-06-01T02:23:38.841Z,101059.96
2019-06-01T02:25:13.552Z,101056.55
2019-06-01T02:26:48.742Z,101052.98
2019-06-01T02:28:23.205Z,101049.60
2019-06-01T02:29:59.413Z,101054.00
2019-06-01T02:31:41.627Z,101055.55
2019-06-01T02:33:11.103Z,101051.25
2019-06-01T02:34:45.597Z,101054.39
2019-06-01T02:36:20.577Z,101052.17
2019-06-01T02:37:56.359Z,101054.75
2019-06-01T02:39:32.048Z,101055.22
2019-06-01T02:41:06.784Z,101051.77
2019-06-01T02:42:41.869Z,101053.22
2019-06-01T02:44:16.273Z,101051.26
2019-06-01T02:45:51.557Z,101048.77
2019-06-01T02:47:26.275Z,101056.88
2019-06-01T02:49:02.051Z,101053.25
2019-06-01T02:50:37.593Z,101051.69
2019-06-01T02:52:12.821Z,101051.52
2019-06-01T02:53:47.226Z,101045.86
2019-06-01T02:55:22.275Z,101051.11
2019-06-01T02:56:57.804Z,101056.66
2019-06-01T02:58:32.946Z,101054.55
2019-06-01T03:00:07.665Z,101054.39
2019-06-01T03:01:56.714Z,101051.68
2019-06-01T03:03:20.717Z,101055.26
2019-06-01T03:04:57.090Z,101055.90
2019-06-01T03:06:33.680Z,101060.23
2019-06-01T03:08:09.757Z,101067.42
2019-06-01T03:09:45.769Z,101068.43
2019-06-01T03:11:25.607Z,101067.80
2019-06-01T03:13:02.086Z,101070.14
2019-06-01T03:14:39.917Z,101067.39
2019-06-01T03:16:16.307Z,101066.56
2019-06-01T03:17:54.346Z,101067.73
2019-06-01T03:19:31.518Z,101072.11
2019-06-01T03:21:07.918Z,101072.31
2019-06-01T03:22:43.611Z,101061.10
2019-06-01T03:24:23.073Z,101069.41
2019-06-01T03:25:59.852Z,101066.05
2019-06-01T03:27:36.593Z,101067.87
2019-06-01T03:29:15.879Z,101061.47
2019-06-01T03:30:50.905Z,101067.95
2019-06-01T03:32:36.373Z,101073.23
2019-06-01T03:34:03.824Z,101074.91
2019-06-01T03:35:38.282Z,101072.69
2019-06-01T03:37:13.573Z,101076.20
2019-06-01T03:38:49.200Z,101072.06
2019-06-01T03:40:24.245Z,101061.79
2019-06-01T03:41:59.111Z,101060.29
2019-06-01T03:43:34.041Z,101061.25
2019-06-01T03:45:09.612Z,101056.97
2019-06-01T03:46:44.747Z,101060.45
2019-06-01T03:48:19.107Z,101063.10
2019-06-01T03:49:54.215Z,101063.02
2019-06-01T03:51:28.885Z,101059.64
2019-06-01T03:53:04.146Z,101056.70
2019-06-01T03:54:38.528Z,101061.63
2019-06-01T03:56:13.829Z,101060.06
2019-06-01T03:57:48.456Z,101060.53
2019-06-01T03:59:23.413Z,101059.52
2019-06-01T04:00:57.786Z,101060.83
2019-06-01T04:02:33.532Z,101058.50
2019-06-01T04:04:09.334Z,101061.08
2019-06-01T04:05:44.529Z,101063.78
2019-06-01T04:07:18.937Z,101068.52
2019-06-01T04:08:53.902Z,101063.74
2019-06-01T04:10:28.817Z,101065.20
2019-06-01T04:12:03.766Z,101065.07
2019-06-01T04:13:38.147Z,101068.24
2019-06-01T04:15:16.519Z,101065.62
2019-06-01T04:16:49.623Z,101065.98
2019-06-01T04:18:24.962Z,101069.02
2019-06-01T04:19:59.318Z,101070.28
2019-06-01T04:21:34.281Z,101071.68
2019-06-01T04:23:08.747Z,101072.39
2019-06-01T04:24:43.686Z,101074.58
2019-06-01T04:26:18.295Z,101075.21
2019-06-01T04:27:53.233Z,101069.94
2019-06-01T04:29:27.618Z,101076.59
2019-06-01T04:31:02.810Z,101073.89
2019-06-01T04:32:49.346Z,101064.78
2019-06-01T04:34:13.869Z,101076.33
2019-06-01T04:35:48.602Z,101072.23
2019-06-01T04:37:23.551Z,101074.28
2019-06-01T04:38:57.990Z,101070.94
2019-06-01T04:40:32.934Z,101073.05
2019-06-01T04:42:07.735Z,101078.92
2019-06-01T04:43:42.911Z,101081.30
2019-06-01T04:45:17.395Z,101082.91
2019-06-01T04:46:52.377Z,101084.18
2019-06-01T04:48:26.995Z,101081.80
2019-06-01T04:50:02.198Z,101081.70
2019-06-01T04:51:36.807Z,101087.29
2019-06-01T04:53:12.200Z,101081.78
2019-06-01T04:54:47.885Z,101077.31
2019-06-01T04:56:22.866Z,101076.58
2019-06-01T04:57:57.227Z,101084.44
2019-06-01T04:59:32.423Z,101077.68
2019-06-01T05:01:06.978Z,101074.08
2019-06-01T05:02:41.985Z,101070.70
2019-06-01T05:04:16.597Z,101079.54
2019-06-01T05:05:51.539Z,101072.98
2019-06-01T05:07:26.182Z,101078.08
2019-06-01T05:09:01.165Z,101079.09
2019-06-01T05:10:35.827Z,101079.03
2019-06-01T05:12:11.418Z,101079.95
2019-06-01T05:13:45.928Z,101076.59
2019-06-01T05:15:20.862Z,101072.61
2019-06-01T05:16:55.462Z,101075.62
2019-06-01T05:18:30.425Z,101074.25
2019-06-01T05:20:06.219Z,101067.64
2019-06-01T05:21:41.273Z,101071.50
2019-06-01T05:23:16.878Z,101073.27
2019-06-01T05:24:52.138Z,101073.28
2019-06-01T05:26:26.498Z,101070.78
2019-06-01T05:28:01.431Z,101068.25
2019-06-01T05:29:36.102Z,101063.97
2019-06-01T05:31:16.684Z,101063.13
2019-06-01T05:32:47.895Z,101067.92
2019-06-01T05:34:22.870Z,101067.87
2019-06-01T05:35:57.670Z,101071.17
2019-06-01T05:37:32.897Z,101062.62
2019-06-01T05:39:08.378Z,101063.09
2019-06-01T05:40:43.649Z,101055.72
2019-06-01T05:42:19.024Z,101056.02
2019-06-01T05:43:54.307Z,101056.84
2019-06-01T05:45:28.762Z,101054.66
2019-06-01T05:47:03.698Z,101047.25
2019-06-01T05:48:38.337Z,101045.48
2019-06-01T05:50:14.342Z,101047.30
2019-06-01T05:51:49.074Z,101051.38
2019-06-01T05:53:24.754Z,101056.34
2019-06-01T05:54:59.118Z,101048.36
2019-06-01T05:56:34.058Z,101040.03
2019-06-01T05:58:08.473Z,101039.89
2019-06-01T05:59:43.431Z,101035.09
2019-06-01T06:01:19.649Z,101038.80
2019-06-01T06:02:54.959Z,101039.98
2019-06-01T06:04:29.338Z,101043.13
2019-06-01T06:06:04.449Z,101039.80
2019-06-01T06:07:39.073Z,101033.48
2019-06-01T06:09:14.812Z,101031.67
2019-06-01T06:10:49.694Z,101027.78
2019-06-01T06:12:24.894Z,101026.87
2019-06-01T06:13:59.296Z,101035.25
2019-06-01T06:15:34.523Z,101032.14
2019-06-01T06:17:12.364Z,101034.69
2019-06-01T06:18:45.658Z,101033.63
2019-06-01T06:20:20.382Z,101032.42
2019-06-01T06:21:55.321Z,101036.28
2019-06-01T06:23:29.732Z,101031.72
2019-06-01T06:25:05.379Z,101030.48
2019-06-01T06:26:40.126Z,101029.84
2019-06-01T06:28:15.328Z,101033.09
2019-06-01T06:29:49.669Z,101023.36
2019-06-01T06:31:24.610Z,101027.17
2019-06-01T06:32:59.014Z,101029.94
2019-06-01T06:34:34.005Z,101030.75
2019-06-01T06:36:08.354Z,101025.80
2019-06-01T06:37:43.535Z,101025.31
2019-06-01T06:39:17.991Z,101024.63
2019-06-01T06:40:53.373Z,101030.02
2019-06-01T06:42:27.852Z,101022.34
2019-06-01T06:44:03.025Z,101026.94
2019-06-01T06:45:37.388Z,101020.66
2019-06-01T06:47:12.575Z,101020.41
2019-06-01T06:48:47.029Z,101024.98
2019-06-01T06:50:22.052Z,101020.89
2019-06-01T06:51:56.744Z,101026.01
2019-06-01T06:53:35.017Z,101012.42
2019-06-01T06:55:08.245Z,101012.12
2019-06-01T06:56:43.206Z,101022.34
2019-06-01T06:58:18.790Z,101026.55
2019-06-01T06:59:54.002Z,101031.47
2019-06-01T07:01:28.358Z,101024.17
2019-06-01T07:03:03.307Z,101019.34
2019-06-01T07:04:37.748Z,101017.58
2019-06-01T07:06:12.754Z,101022.41
2019-06-01T07:07:47.339Z,101018.09
2019-06-01T07:09:22.289Z,101019.28
2019-06-01T07:10:56.990Z,101014.75
2019-06-01T07:12:32.280Z,101014.66
2019-06-01T07:14:07.082Z,101015.55
2019-06-01T07:15:42.337Z,101007.52
2019-06-01T07:17:16.706Z,101008.43
2019-06-01T07:18:51.903Z,101010.65
2019-06-01T07:20:26.366Z,101007.28
2019-06-01T07:22:01.297Z,100995.11
2019-06-01T07:23:36.155Z,101002.03
2019-06-01T07:25:11.533Z,101003.70
2019-06-01T07:26:46.228Z,101001.73
2019-06-01T07:28:22.014Z,100997.79
2019-06-01T07:29:56.577Z,101001.12
2019-06-01T07:31:32.511Z,101005.98
2019-06-01T07:33:07.234Z,100992.73
2019-06-01T07:34:42.976Z,100991.56
2019-06-01T07:36:17.842Z,100987.81
2019-06-01T07:37:53.083Z,100995.80
2019-06-01T07:39:29.093Z,100990.06
2019-06-01T07:41:04.490Z,100988.92
2019-06-01T07:42:38.879Z,100989.94
2019-06-01T07:44:13.853Z,100996.83
2019-06-01T07:45:48.470Z,100993.24
2019-06-01T07:47:24.880Z,100982.98
2019-06-01T07:48:59.527Z,100977.41
2019-06-01T07:50:34.720Z,100978.28
2019-06-01T07:52:13.257Z,100978.96
2019-06-01T07:53:45.862Z,100984.52
2019-06-01T07:55:21.391Z,100979.31
2019-06-01T07:56:56.889Z,100975.89
2019-06-01T07:58:32.961Z,100975.72
2019-06-01T08:00:09.160Z,100972.39
2019-06-01T08:01:43.816Z,100962.88
2019-06-01T08:03:18.875Z,100966.31
2019-06-01T08:04:54.817Z,100974.01
2019-06-01T08:06:32.649Z,100956.91
2019-06-01T08:08:06.799Z,100961.53
2019-06-01T08:09:42.404Z,100955.08
2019-06-01T08:11:17.686Z,100954.91
2019-06-01T08:12:53.073Z,100949.42
2019-06-01T08:14:28.640Z,100953.81
2019-06-01T08:16:04.102Z,100948.75
2019-06-01T08:17:38.515Z,100951.31
2019-06-01T08:19:13.942Z,100944.68
2019-06-01T08:20:48.372Z,100939.70
2019-06-01T08:22:23.862Z,100942.22
2019-06-01T08:23:58.418Z,100941.25
2019-06-01T08:25:33.657Z,100943.81
2019-06-01T08:27:08.018Z,100943.20
2019-06-01T08:28:42.966Z,100942.06
2019-06-01T08:30:17.729Z,100944.78
2019-06-01T08:31:55.807Z,100952.46
2019-06-01T08:33:32.911Z,100946.00
2019-06-01T08:35:08.988Z,100938.00
2019-06-01T08:36:42.023Z,100932.47
2019-06-01T08:38:17.844Z,100934.77
2019-06-01T08:39:52.285Z,100927.06
2019-06-01T08:41:27.768Z,100930.26
2019-06-01T08:43:02.475Z,100926.80
2019-06-01T08:44:37.481Z,100919.42
2019-06-01T08:46:12.102Z,100924.63
2019-06-01T08:47:47.270Z,100922.20
2019-06-01T08:49:21.940Z,100923.32
2019-06-01T08:50:56.902Z,100912.59
2019-06-01T08:52:32.182Z,100917.30
2019-06-01T08:54:07.754Z,100914.13
2019-06-01T08:55:42.742Z,100917.12
2019-06-01T08:57:18.532Z,100911.02
2019-06-01T08:58:53.332Z,100913.08
2019-06-01T09:00:28.906Z,100910.98
2019-06-01T09:02:04.014Z,100904.33
2019-06-01T09:03:46.283Z,100901.10
2019-06-01T09:05:24.235Z,100897.98
2019-06-01T09:06:55.286Z,100895.61
2019-06-01T09:08:30.913Z,100892.83
2019-06-01T09:10:07.937Z,100900.83
2019-06-01T09:11:42.741Z,100895.05
2019-06-01T09:13:18.302Z,100897.53
2019-06-01T09:14:53.162Z,100895.95
2019-06-01T09:16:29.512Z,100902.21
2019-06-01T09:18:04.447Z,100915.19
2019-06-01T09:19:40.011Z,100906.27
2019-06-01T09:21:14.789Z,100890.84
2019-06-01T09:22:50.145Z,100895.53
2019-06-01T09:24:25.767Z,100905.55
2019-06-01T09:26:01.158Z,100906.91
2019-06-01T09:27:36.176Z,100890.77
2019-06-01T09:29:11.521Z,100892.88
2019-06-01T09:30:46.207Z,100895.86
2019-06-01T09:32:21.429Z,100898.32
2019-06-01T09:33:55.960Z,100910.26
2019-06-01T09:35:48.656Z,100895.48
2019-06-01T09:37:07.606Z,100897.42
2019-06-01T09:38:42.616Z,100895.58
2019-06-01T09:40:17.093Z,100893.48
2019-06-01T09:41:52.341Z,100903.40
2019-06-01T09:43:27.021Z,100906.61
2019-06-01T09:45:02.079Z,100897.77
2019-06-01T09:46:37.429Z,100890.33
2019-06-01T09:48:12.751Z,100894.09
2019-06-01T09:49:47.450Z,100896.20
2019-06-01T09:51:22.650Z,100899.67
2019-06-01T09:52:57.003Z,100904.13
2019-06-01T09:54:33.258Z,100909.20
2019-06-01T09:56:08.798Z,100902.25
2019-06-01T09:57:44.229Z,100889.92
2019-06-01T09:59:18.942Z,100889.95
2019-06-01T10:00:53.915Z,100895.93
2019-06-01T10:02:28.281Z,100903.23
2019-06-01T10:04:03.539Z,100901.75
2019-06-01T10:05:38.601Z,100898.23
2019-06-01T10:07:13.873Z,100900.89
2019-06-01T10:08:48.290Z,100903.53
2019-06-01T10:10:23.497Z,100913.66
2019-06-01T10:11:57.847Z,100901.23
2019-06-01T10:13:33.388Z,100899.95
2019-06-01T10:15:10.451Z,100890.31
2019-06-01T10:16:45.657Z,100886.66
2019-06-01T10:18:20.001Z,100906.80
2019-06-01T10:19:54.962Z,100895.14
2019-06-01T10:21:29.796Z,100886.77
2019-06-01T10:23:04.995Z,100880.41
2019-06-01T10:24:39.417Z,100885.41
2019-06-01T10:26:14.404Z,100892.76
2019-06-01T10:27:48.778Z,100897.27
2019-06-01T10:29:23.717Z,100887.23
2019-06-01T10:30:58.299Z,100883.70
2019-06-01T10:32:34.203Z,100875.27
2019-06-01T10:34:08.818Z,100871.31
2019-06-01T10:35:44.037Z,100866.89
2019-06-01T10:37:18.432Z,100856.69
2019-06-01T10:38:53.622Z,100860.61
2019-06-01T10:40:28.384Z,100850.47
2019-06-01T10:42:03.391Z,100843.50
2019-06-01T10:43:38.051Z,100851.91
2019-06-01T10:45:14.142Z,100857.63
2019-06-01T10:46:48.572Z,100853.33
2019-06-01T10:48:23.494Z,100864.91
2019-06-01T10:49:58.112Z,100876.55
2019-06-01T10:51:34.028Z,100863.38
2019-06-01T10:53:08.683Z,100854.92
2019-06-01T10:54:44.200Z,100853.83
2019-06-01T10:56:18.843Z,100848.39
2019-06-01T10:57:53.870Z,100837.37
2019-06-01T10:59:28.358Z,100833.51
2019-06-01T11:01:03.379Z,100831.13
2019-06-01T11:02:38.831Z,100830.88
2019-06-01T11:04:17.415Z,100829.92
2019-06-01T11:06:00.714Z,100827.61
2019-06-01T11:07:43.119Z,100820.53
2019-06-01T11:09:19.008Z,100823.66
2019-06-01T11:10:59.022Z,100820.28
2019-06-01T11:12:34.943Z,100820.14
2019-06-01T11:14:11.878Z,100814.22
2019-06-01T11:16:09.979Z,100815.29
2019-06-01T11:17:46.176Z,100811.13
2019-06-01T11:19:22.468Z,100816.50
2019-06-01T11:20:57.697Z,100816.22
2019-06-01T11:22:59.439Z,100810.52
2019-06-01T11:24:35.619Z,100813.66
2019-06-01T11:26:10.718Z,100804.30
2019-06-01T11:27:45.735Z,100815.72
2019-06-01T11:29:24.451Z,100807.63
2019-06-01T11:31:03.460Z,100812.49
2019-06-01T11:33:01.200Z,100804.05
2019-06-01T11:34:40.229Z,100814.81
2019-06-01T11:36:26.559Z,100807.07
2019-06-01T11:38:20.785Z,100806.20
2019-06-01T11:41:53.466Z,100800.98
2019-06-01T11:43:34.563Z,100801.77
2019-06-01T11:45:10.347Z,100803.45
2019-06-01T11:47:07.184Z,100803.83
2019-06-01T11:48:53.689Z,100792.12
2019-06-01T11:50:31.978Z,100793.80
2019-06-01T11:52:23.239Z,100790.91
2019-06-01T11:54:21.080Z,100782.84
2019-06-01T11:55:57.890Z,100788.83
2019-06-01T11:57:37.541Z,100787.20
2019-06-01T11:59:13.131Z,100794.13
2019-06-01T12:00:48.025Z,100786.09
2019-06-01T12:02:43.930Z,100792.02
2019-06-01T12:04:22.061Z,100795.63
2019-06-01T12:05:57.298Z,100795.77
2019-06-01T12:07:31.769Z,100790.67
2019-06-01T12:09:25.704Z,100787.64
2019-06-01T12:11:05.084Z,100784.09
2019-06-01T12:12:44.308Z,100778.31
2019-06-01T12:14:21.959Z,100775.87
2019-06-01T12:16:24.586Z,100777.47
2019-06-01T12:17:51.654Z,100778.98
2019-06-01T12:19:36.491Z,100776.97
2019-06-01T12:21:11.747Z,100776.30
2019-06-01T12:22:51.686Z,100773.30
2019-06-01T12:24:47.182Z,100764.38
2019-06-01T12:26:22.679Z,100765.50
2019-06-01T12:27:57.614Z,100756.45
2019-06-01T12:29:32.600Z,100756.33
2019-06-01T12:31:07.110Z,100760.84
2019-06-01T12:32:42.326Z,100753.95
2019-06-01T12:34:17.114Z,100758.50
2019-06-01T12:35:52.323Z,100758.02
2019-06-01T12:37:45.458Z,100752.70
2019-06-01T12:39:03.962Z,100757.34
2019-06-01T12:40:39.109Z,100749.19
2019-06-01T12:42:14.236Z,100745.92
2019-06-01T12:44:08.038Z,100744.88
2019-06-01T12:45:43.498Z,100741.86
2019-06-01T12:47:18.857Z,100742.31
2019-06-01T12:48:53.286Z,100744.73
2019-06-01T12:50:28.507Z,100734.44
2019-06-01T12:52:03.154Z,100737.78
2019-06-01T12:53:38.447Z,100741.72
2019-06-01T12:55:12.892Z,100753.64
2019-06-01T12:56:49.734Z,100741.73
2019-06-01T12:58:24.042Z,100740.19
2019-06-01T12:59:59.053Z,100740.41
2019-06-01T13:01:33.606Z,100727.02
2019-06-01T13:03:08.636Z,100727.39
2019-06-01T13:04:44.747Z,100720.33
2019-06-01T13:06:19.882Z,100711.66
2019-06-01T13:08:01.690Z,100722.89
2019-06-01T13:09:31.725Z,100704.34
2019-06-01T13:11:06.620Z,100718.09
2019-06-01T13:12:43.016Z,100711.55
2019-06-01T13:14:17.831Z,100711.07
2019-06-01T13:15:53.124Z,100700.95
2019-06-01T13:17:27.857Z,100702.43
2019-06-01T13:19:02.883Z,100702.59
2019-06-01T13:20:37.369Z,100699.70
2019-06-01T13:22:12.309Z,100694.63
2019-06-01T13:23:47.615Z,100691.47
2019-06-01T13:25:22.616Z,100699.49
2019-06-01T13:26:57.218Z,100696.69
2019-06-01T13:28:38.135Z,100696.69
2019-06-01T13:30:08.897Z,100695.23
2019-06-01T13:31:44.451Z,100691.21
2019-06-01T13:33:19.523Z,100683.80
2019-06-01T13:36:48.954Z,100674.48
2019-06-01T13:38:24.055Z,100675.42
2019-06-01T13:39:58.507Z,100671.88
2019-06-01T13:41:33.477Z,100669.17
2019-06-01T13:43:07.833Z,100666.97
2019-06-01T13:44:43.345Z,100665.21
2019-06-01T13:46:17.973Z,100652.92
2019-06-01T13:47:54.078Z,100654.30
2019-06-01T13:49:29.110Z,100661.97
2019-06-01T13:51:04.251Z,100654.25
2019-06-01T13:52:38.629Z,100654.97
2019-06-01T13:54:13.587Z,100655.80
2019-06-01T13:55:48.398Z,100656.49
2019-06-01T13:57:23.770Z,100656.89
2019-06-01T13:58:58.210Z,100655.11
2019-06-01T14:00:33.293Z,100646.78
2019-06-01T14:02:08.324Z,100645.89
2019-06-01T14:03:44.879Z,100645.44
2019-06-01T14:05:19.518Z,100643.22
2019-06-01T14:06:55.500Z,100645.75
2019-06-01T14:08:29.929Z,100640.48
2019-06-01T14:10:06.514Z,100641.02
2019-06-01T14:11:40.961Z,100634.53
2019-06-01T14:13:15.927Z,100639.31
2019-06-01T14:14:51.522Z,100637.16
2019-06-01T14:16:26.609Z,100637.91
2019-06-01T14:18:01.561Z,100634.70
2019-06-01T14:19:36.518Z,100635.22
2019-06-01T14:21:11.534Z,100631.84
2019-06-01T14:22:47.625Z,100636.37
2019-06-01T14:24:22.198Z,100630.45
2019-06-01T14:25:57.234Z,100629.70
2019-06-01T14:27:31.822Z,100631.25
2019-06-01T14:29:07.099Z,100629.09
2019-06-01T14:30:41.543Z,100629.87
2019-06-01T14:32:16.819Z,100625.66
2019-06-01T14:33:52.560Z,100625.28
2019-06-01T14:35:28.045Z,100627.41
2019-06-01T14:37:02.559Z,100623.05
2019-06-01T14:38:47.002Z,100629.05
2019-06-01T14:40:14.504Z,100627.39
2019-06-01T14:41:49.499Z,100626.42
2019-06-01T14:43:24.131Z,100629.40
2019-06-01T14:44:59.343Z,100621.23
2019-06-01T14:46:34.276Z,100622.36
2019-06-01T14:48:12.450Z,100623.94
2019-06-01T14:49:47.455Z,100625.49
2019-06-01T14:51:24.482Z,100620.23
2019-06-01T14:52:58.988Z,100625.29
2019-06-01T14:54:34.105Z,100617.89
2019-06-01T14:56:27.963Z,100616.99
2019-06-01T14:58:03.056Z,100619.98
2019-06-01T14:59:39.013Z,100621.67
2019-06-01T15:01:30.952Z,100618.98
2019-06-01T15:02:50.546Z,100615.89
2019-06-01T15:04:25.837Z,100612.59
2019-06-01T15:06:00.537Z,100617.66
2019-06-01T15:07:35.734Z,100612.95
2019-06-01T15:09:18.661Z,100621.80
2019-06-01T15:10:48.596Z,100613.14
2019-06-01T15:12:23.255Z,100614.52
2019-06-01T15:13:58.640Z,100611.76
2019-06-01T15:15:33.284Z,100609.86
2019-06-01T15:17:08.559Z,100610.77
2019-06-01T15:18:42.906Z,100613.81
2019-06-01T15:20:18.490Z,100611.51
2019-06-01T15:21:54.101Z,100607.31
2019-06-01T15:23:29.431Z,100607.58
2019-06-01T15:25:04.494Z,100606.63
2019-06-01T15:26:39.425Z,100610.86
2019-06-01T15:28:13.811Z,100609.66
2019-06-01T15:29:48.770Z,100607.08
2019-06-01T15:31:23.177Z,100607.92
2019-06-01T15:32:58.439Z,100602.24
2019-06-01T15:34:33.218Z,100602.77
2019-06-01T15:36:08.314Z,100600.73
2019-06-01T15:37:42.747Z,100599.83
2019-06-01T15:39:24.965Z,100595.48
2019-06-01T15:40:54.041Z,100601.81
2019-06-01T15:42:28.977Z,100604.99
2019-06-01T15:44:03.697Z,100603.95
2019-06-01T15:45:41.246Z,100603.84
2019-06-01T15:47:15.306Z,100603.91
2019-06-01T15:48:51.641Z,100601.34
2019-06-01T15:50:26.305Z,100596.66
2019-06-01T15:52:02.046Z,100603.73
2019-06-01T15:53:36.876Z,100600.89
2019-06-01T15:55:12.433Z,100596.75
2019-06-01T15:56:46.901Z,100605.55
2019-06-01T15:58:22.063Z,100601.53
2019-06-01T15:59:56.933Z,100597.57
2019-06-01T16:01:31.866Z,100599.81
2019-06-01T16:03:06.782Z,100596.66
2019-06-01T16:04:41.727Z,100592.98
2019-06-01T16:06:16.089Z,100593.98
2019-06-01T16:07:51.328Z,100589.55
2019-06-01T16:09:41.667Z,100594.27
2019-06-01T16:11:05.908Z,100593.22
2019-06-01T16:12:38.903Z,100595.32
2019-06-01T16:14:13.925Z,100588.09
2019-06-01T16:15:48.367Z,100590.13
2019-06-01T16:17:23.809Z,100591.66
2019-06-01T16:19:02.834Z,100590.75
2019-06-01T16:20:35.121Z,100594.09
2019-06-01T16:22:09.463Z,100588.02
2019-06-01T16:23:50.047Z,100587.03
2019-06-01T16:25:21.186Z,100589.33
2019-06-01T16:26:56.658Z,100591.45
2019-06-01T16:28:31.073Z,100589.34
2019-06-01T16:30:07.385Z,100585.92
2019-06-01T16:31:41.833Z,100593.08
2019-06-01T16:33:16.770Z,100588.25
2019-06-01T16:34:51.472Z,100591.03
2019-06-01T16:36:26.522Z,100588.33
2019-06-01T16:38:02.423Z,100582.08
2019-06-01T16:39:38.226Z,100578.48
2019-06-01T16:41:12.578Z,100577.84
2019-06-01T16:42:47.806Z,100583.17
2019-06-01T16:44:22.463Z,100579.84
2019-06-01T16:45:57.694Z,100578.52
2019-06-01T16:47:32.141Z,100576.02
2019-06-01T16:49:07.161Z,100577.34
2019-06-01T16:50:41.857Z,100572.61
2019-06-01T16:52:17.136Z,100574.59
2019-06-01T16:53:51.482Z,100572.05
2019-06-01T16:55:26.451Z,100578.70
2019-06-01T16:57:00.838Z,100571.44
2019-06-01T16:58:36.155Z,100572.89
2019-06-01T17:00:11.676Z,100573.89
2019-06-01T17:01:46.625Z,100569.89
2019-06-01T17:03:21.531Z,100566.92
2019-06-01T17:04:56.574Z,100567.58
2019-06-01T17:06:31.088Z,100563.81
2019-06-01T17:08:07.039Z,100569.41
2019-06-01T17:09:41.881Z,100569.95
2019-06-01T17:11:16.814Z,100570.44
2019-06-01T17:12:51.511Z,100572.98
2019-06-01T17:14:26.804Z,100575.20
2019-06-01T17:16:01.157Z,100577.32
2019-06-01T17:17:36.358Z,100567.84
2019-06-01T17:19:11.237Z,100574.53
2019-06-01T17:20:50.534Z,100567.41
2019-06-01T17:22:24.883Z,100574.42
2019-06-01T17:23:59.901Z,100574.27
2019-06-01T17:25:34.595Z,100576.14
2019-06-01T17:27:09.929Z,100573.86
2019-06-01T17:28:44.393Z,100573.23
2019-06-01T17:30:19.660Z,100571.33
2019-06-01T17:31:56.432Z,100571.38
2019-06-01T17:33:31.246Z,100573.56
2019-06-01T17:35:07.056Z,100568.72
2019-06-01T17:36:42.373Z,100570.41
2019-06-01T17:38:16.889Z,100578.65
2019-06-01T17:39:51.837Z,100578.98
2019-06-01T17:41:26.751Z,100576.20
2019-06-01T17:43:03.006Z,100577.58
2019-06-01T17:44:37.680Z,100571.84
2019-06-01T17:46:12.652Z,100580.47
2019-06-01T17:47:47.076Z,100567.39
2019-06-01T17:49:22.279Z,100571.09
2019-06-01T17:50:56.983Z,100574.23
2019-06-01T17:52:32.414Z,100576.39
2019-06-01T17:54:08.279Z,100571.58
2019-06-01T17:55:43.929Z,100572.58
2019-06-01T17:57:18.649Z,100568.47
2019-06-01T17:58:53.851Z,100570.81
2019-06-01T18:00:28.370Z,100570.00
2019-06-01T18:02:03.664Z,100566.57
2019-06-01T18:03:38.155Z,100570.73
2019-06-01T18:05:13.174Z,100570.23
2019-06-01T18:06:47.526Z,100571.71
2019-06-01T18:08:22.755Z,100579.17
2019-06-01T18:09:57.386Z,100575.87
2019-06-01T18:11:32.733Z,100576.86
2019-06-01T18:13:08.632Z,100578.02
2019-06-01T18:14:43.878Z,100579.46
2019-06-01T18:16:18.312Z,100578.62